createdAt,value
2022-10-24T00:00:46.282Z,15.60
2022-10-24T00:03:13.751Z,15.97
2022-10-24T00:05:44.988Z,15.80
2022-10-24T00:08:11.935Z,15.51
2022-10-24T00:10:43.783Z,15.51
2022-10-24T00:13:11.841Z,15.83
2022-10-24T00:15:39.282Z,15.97
2022-10-24T00:18:06.190Z,15.65
2022-10-24T00:20:33.196Z,16.00
2022-10-24T00:23:00.330Z,15.83
2022-10-24T00:25:27.320Z,16.00
2022-10-24T00:27:54.295Z,15.34
2022-10-24T00:30:21.791Z,15.22
2022-10-24T00:32:48.706Z,15.10
2022-10-24T00:35:15.611Z,15.84
2022-10-24T00:37:42.830Z,15.70
2022-10-24T00:40:11.608Z,15.64
2022-10-24T00:42:38.608Z,15.84
2022-10-24T00:45:42.879Z,16.03
2022-10-24T00:48:35.777Z,15.86
2022-10-24T00:51:17.277Z,15.36
2022-10-24T00:53:47.429Z,15.98
2022-10-24T00:56:14.692Z,15.96
2022-10-24T00:58:41.747Z,15.58
2022-10-24T01:04:30.024Z,15.93
2022-10-24T01:07:00.229Z,15.90
2022-10-24T01:09:36.129Z,15.90
2022-10-24T01:16:01.095Z,15.43
2022-10-24T01:19:08.989Z,15.54
2022-10-24T01:25:35.552Z,15.84
2022-10-24T01:28:21.147Z,15.84
2022-10-24T01:30:50.275Z,15.72
2022-10-24T01:33:32.906Z,15.62
2022-10-24T01:36:03.891Z,15.93
2022-10-24T01:38:36.046Z,15.96
2022-10-24T01:41:23.848Z,15.98
2022-10-24T01:44:15.742Z,15.74
2022-10-24T01:47:03.697Z,15.99
2022-10-24T01:49:33.466Z,16.01
2022-10-24T01:52:01.701Z,15.99
2022-10-24T01:54:28.798Z,15.61
2022-10-24T01:56:55.769Z,15.34
2022-10-24T01:59:28.671Z,16.16
2022-10-24T02:02:14.806Z,15.78
2022-10-24T02:04:46.531Z,16.08
2022-10-24T02:07:13.414Z,15.75
2022-10-24T02:09:40.822Z,15.85
2022-10-24T02:12:08.522Z,16.23
2022-10-24T02:14:37.169Z,15.47
2022-10-24T02:17:04.217Z,15.21
2022-10-24T02:19:31.519Z,16.07
2022-10-24T02:22:13.607Z,16.12
2022-10-24T02:24:42.378Z,14.77
2022-10-24T02:27:24.814Z,16.21
2022-10-24T02:29:59.022Z,15.92
2022-10-24T02:32:29.014Z,16.21
2022-10-24T02:34:55.918Z,15.50
2022-10-24T02:37:22.853Z,15.63
2022-10-24T02:39:50.174Z,14.90
2022-10-24T02:42:17.084Z,16.08
2022-10-24T02:44:44.034Z,16.19
2022-10-24T02:47:11.669Z,16.21
2022-10-24T02:49:39.188Z,15.73
2022-10-24T02:52:06.433Z,15.81
2022-10-24T02:54:33.498Z,16.20
2022-10-24T02:57:02.829Z,15.57
2022-10-24T02:59:29.918Z,16.21
2022-10-24T03:01:56.859Z,16.20
2022-10-24T03:04:23.778Z,16.20
2022-10-24T03:06:50.700Z,16.01
2022-10-24T03:09:17.833Z,16.20
2022-10-24T03:11:44.846Z,15.73
2022-10-24T03:14:11.808Z,16.00
2022-10-24T03:16:38.828Z,16.12
2022-10-24T03:19:05.710Z,15.94
2022-10-24T03:21:32.934Z,15.83
2022-10-24T03:23:59.954Z,15.59
2022-10-24T03:26:26.916Z,15.40
2022-10-24T03:28:53.908Z,16.20
2022-10-24T03:31:20.986Z,16.19
2022-10-24T03:33:47.868Z,15.94
2022-10-24T03:36:14.898Z,15.66
2022-10-24T03:38:41.765Z,16.03
2022-10-24T03:41:08.654Z,16.00
2022-10-24T03:43:35.650Z,15.81
2022-10-24T03:46:03.072Z,15.96
2022-10-24T03:48:29.954Z,15.82
2022-10-24T03:50:57.238Z,15.48
2022-10-24T03:53:24.334Z,15.80
2022-10-24T03:55:51.231Z,15.93
2022-10-24T03:58:18.152Z,16.08
2022-10-24T04:00:45.190Z,15.69
2022-10-24T04:03:12.157Z,16.00
2022-10-24T04:08:27.114Z,15.56
2022-10-24T04:10:54.012Z,15.53
2022-10-24T04:13:21.005Z,15.81
2022-10-24T04:15:47.877Z,15.87
2022-10-24T04:18:14.848Z,15.92
2022-10-24T04:20:41.782Z,15.63
2022-10-24T04:23:08.740Z,14.82
2022-10-24T04:25:35.624Z,15.56
2022-10-24T04:28:02.770Z,15.92
2022-10-24T04:30:30.099Z,15.30
2022-10-24T04:32:57.148Z,15.66
2022-10-24T04:35:25.679Z,15.53
2022-10-24T04:37:52.942Z,15.59
2022-10-24T04:40:20.100Z,16.01
2022-10-24T04:42:47.278Z,15.55
2022-10-24T04:45:14.611Z,15.87
2022-10-24T04:47:41.791Z,14.94
2022-10-24T04:50:09.086Z,15.91
2022-10-24T04:52:36.238Z,15.82
2022-10-24T04:55:03.586Z,16.00
2022-10-24T04:57:30.476Z,15.71
2022-10-24T04:59:57.547Z,15.51
2022-10-24T05:02:24.651Z,15.93
2022-10-24T05:04:51.572Z,15.92
2022-10-24T05:07:21.298Z,15.75
2022-10-24T05:09:48.763Z,16.05
2022-10-24T05:12:15.916Z,16.05
2022-10-24T05:14:42.856Z,15.80
2022-10-24T05:17:09.753Z,16.11
2022-10-24T05:19:37.821Z,15.97
2022-10-24T05:22:07.202Z,16.16
2022-10-24T05:24:36.953Z,16.16
2022-10-24T05:27:04.533Z,15.70
2022-10-24T05:29:31.672Z,15.90
2022-10-24T05:31:58.662Z,16.06
2022-10-24T05:34:26.831Z,16.26
2022-10-24T05:36:53.762Z,16.27
2022-10-24T05:39:20.639Z,16.11
2022-10-24T05:41:48.272Z,15.34
2022-10-24T05:44:16.379Z,16.12
2022-10-24T05:46:43.260Z,15.61
2022-10-24T05:49:10.380Z,15.84
2022-10-24T05:51:37.285Z,16.21
2022-10-24T05:54:04.250Z,16.01
2022-10-24T05:56:31.553Z,16.01
2022-10-24T05:58:58.478Z,15.84
2022-10-24T06:01:25.579Z,15.94
2022-10-24T06:03:52.788Z,15.45
2022-10-24T06:06:19.952Z,15.91
2022-10-24T06:08:46.841Z,15.95
2022-10-24T06:11:14.028Z,15.70
2022-10-24T06:13:41.071Z,16.19
2022-10-24T06:16:08.625Z,15.92
2022-10-24T06:18:36.264Z,16.19
2022-10-24T06:21:04.433Z,16.19
2022-10-24T06:23:31.685Z,15.73
2022-10-24T06:25:58.847Z,16.06
2022-10-24T06:28:26.176Z,15.29
2022-10-24T06:30:54.738Z,15.93
2022-10-24T06:33:21.684Z,15.97
2022-10-24T06:35:48.665Z,16.28
2022-10-24T06:38:15.869Z,16.30
2022-10-24T06:40:42.933Z,15.84
2022-10-24T06:43:10.078Z,16.09
2022-10-24T06:45:40.097Z,16.33
2022-10-24T06:48:07.105Z,16.19
2022-10-24T06:50:34.035Z,16.00
2022-10-24T06:53:00.968Z,16.40
2022-10-24T06:55:28.292Z,16.28
2022-10-24T06:57:55.393Z,15.68
2022-10-24T07:00:22.441Z,15.90
2022-10-24T07:02:49.966Z,16.24
2022-10-24T07:05:17.181Z,16.04
2022-10-24T07:07:44.731Z,16.20
2022-10-24T07:10:13.782Z,16.33
2022-10-24T07:12:41.386Z,15.94
2022-10-24T07:15:08.794Z,15.99
2022-10-24T07:17:40.504Z,15.79
2022-10-24T07:20:07.908Z,16.17
2022-10-24T07:22:35.350Z,16.44
2022-10-24T07:25:02.893Z,16.13
2022-10-24T07:27:29.802Z,16.46
2022-10-24T07:29:58.534Z,16.05
2022-10-24T07:32:26.325Z,15.89
2022-10-24T07:34:53.233Z,15.56
2022-10-24T07:37:20.222Z,16.54
2022-10-24T07:39:47.420Z,16.12
2022-10-24T07:42:14.916Z,16.57
2022-10-24T07:44:41.801Z,16.38
2022-10-24T07:47:10.311Z,15.79
2022-10-24T07:49:37.738Z,16.19
2022-10-24T07:52:05.543Z,16.62
2022-10-24T07:54:36.275Z,16.63
2022-10-24T07:57:04.623Z,15.26
2022-10-24T07:59:41.914Z,16.43
2022-10-24T08:02:12.026Z,16.33
2022-10-24T08:04:39.484Z,16.64
2022-10-24T08:07:13.641Z,16.66
2022-10-24T08:09:42.243Z,16.15
2022-10-24T08:12:09.175Z,16.34
2022-10-24T08:14:39.896Z,16.28
2022-10-24T08:17:06.830Z,16.50
2022-10-24T08:19:34.277Z,16.62
2022-10-24T08:22:02.327Z,16.71
2022-10-24T08:24:29.474Z,16.15
2022-10-24T08:26:56.890Z,16.01
2022-10-24T08:29:25.149Z,15.96
2022-10-24T08:31:54.842Z,16.15
2022-10-24T08:34:22.972Z,16.60
2022-10-24T08:36:50.471Z,16.23
2022-10-24T08:39:18.718Z,16.61
2022-10-24T08:41:48.934Z,16.50
2022-10-24T08:44:38.009Z,16.31
2022-10-24T08:47:45.034Z,16.64
2022-10-24T08:50:30.414Z,16.62
2022-10-24T08:53:28.431Z,15.39
2022-10-24T08:55:58.765Z,16.17
2022-10-24T08:58:44.021Z,16.45
2022-10-24T09:01:28.591Z,16.30
2022-10-24T09:03:56.858Z,16.45
2022-10-24T09:06:29.502Z,16.60
2022-10-24T09:08:58.354Z,16.89
2022-10-24T09:11:33.902Z,16.84
2022-10-24T09:14:02.901Z,16.99
2022-10-24T09:16:29.877Z,16.84
2022-10-24T09:18:56.826Z,17.04
2022-10-24T09:21:23.971Z,16.69
2022-10-24T09:23:51.675Z,17.44
2022-10-24T09:26:28.344Z,17.55
2022-10-24T09:28:57.133Z,17.56
2022-10-24T09:31:25.378Z,17.08
2022-10-24T09:33:53.055Z,16.88
2022-10-24T09:36:21.434Z,17.60
2022-10-24T09:38:49.495Z,17.39
2022-10-24T09:41:28.251Z,17.31
2022-10-24T09:44:02.012Z,17.71
2022-10-24T09:46:45.683Z,17.61
2022-10-24T09:49:24.057Z,17.59
2022-10-24T09:52:05.121Z,17.41
2022-10-24T09:54:34.542Z,17.34
2022-10-24T09:57:16.695Z,16.65
2022-10-24T09:59:49.121Z,17.37
2022-10-24T10:02:35.143Z,16.92
2022-10-24T10:05:04.978Z,17.53
2022-10-24T10:07:32.938Z,17.46
2022-10-24T10:10:22.765Z,16.73
2022-10-24T10:12:59.024Z,16.54
2022-10-24T10:15:29.923Z,16.83
2022-10-24T10:18:00.881Z,16.71
2022-10-24T10:20:33.043Z,17.23
2022-10-24T10:23:44.825Z,17.01
2022-10-24T10:26:19.963Z,17.30
2022-10-24T10:28:56.933Z,17.30
2022-10-24T10:31:38.114Z,16.87
2022-10-24T10:34:43.323Z,17.23
2022-10-24T10:37:32.823Z,17.09
2022-10-24T10:40:08.781Z,17.33
2022-10-24T10:42:53.947Z,17.36
2022-10-24T10:45:36.774Z,17.40
2022-10-24T10:48:30.285Z,17.47
2022-10-24T10:51:05.850Z,17.57
2022-10-24T10:53:43.369Z,17.64
2022-10-24T10:56:32.795Z,17.65
2022-10-24T10:59:04.065Z,17.61
2022-10-24T11:01:44.860Z,17.53
2022-10-24T11:04:43.439Z,17.38
2022-10-24T11:07:16.717Z,17.27
2022-10-24T11:09:48.014Z,17.14
2022-10-24T11:12:25.226Z,17.42
2022-10-24T11:17:53.471Z,17.45
2022-10-24T11:20:26.613Z,16.85
2022-10-24T11:23:11.835Z,17.46
2022-10-24T11:25:41.727Z,17.28
2022-10-24T11:28:31.782Z,17.07
2022-10-24T11:31:08.802Z,17.37
2022-10-24T11:33:46.710Z,16.64
2022-10-24T11:36:37.232Z,16.47
2022-10-24T11:39:07.116Z,17.23
2022-10-24T11:41:48.816Z,16.96
2022-10-24T11:44:24.185Z,17.22
2022-10-24T11:47:10.736Z,17.05
2022-10-24T11:49:40.388Z,16.75
2022-10-24T11:52:28.182Z,17.29
2022-10-24T11:54:58.793Z,16.71
2022-10-24T11:57:27.509Z,16.98
2022-10-24T11:59:55.033Z,16.66
2022-10-24T12:03:00.779Z,17.50
2022-10-24T12:06:10.252Z,16.26
2022-10-24T12:08:58.043Z,17.36
2022-10-24T12:11:27.914Z,17.52
2022-10-24T12:14:06.623Z,17.52
2022-10-24T12:16:57.957Z,17.54
2022-10-24T12:19:25.707Z,17.00
2022-10-24T12:21:59.674Z,17.55
2022-10-24T12:24:30.377Z,17.48
2022-10-24T12:27:05.256Z,17.25
2022-10-24T12:29:34.139Z,17.37
2022-10-24T12:32:45.225Z,17.24
2022-10-24T12:35:31.254Z,17.26
2022-10-24T12:37:58.737Z,17.05
2022-10-24T12:40:55.717Z,17.17
2022-10-24T12:43:43.907Z,17.12
2022-10-24T12:46:22.723Z,17.09
2022-10-24T12:48:59.218Z,17.05
2022-10-24T12:51:28.101Z,16.76
2022-10-24T12:54:12.613Z,16.84
2022-10-24T12:57:04.517Z,16.95
2022-10-24T12:59:35.202Z,16.71
2022-10-24T13:02:21.014Z,16.46
2022-10-24T13:05:11.973Z,16.89
2022-10-24T13:08:20.546Z,16.75
2022-10-24T13:11:06.773Z,16.83
2022-10-24T13:13:58.546Z,16.64
2022-10-24T13:16:42.695Z,16.70
2022-10-24T13:19:17.171Z,16.63
2022-10-24T13:21:55.090Z,16.60
2022-10-24T13:24:38.234Z,16.45
2022-10-24T13:27:12.900Z,16.59
2022-10-24T13:29:39.940Z,16.59
2022-10-24T13:32:06.724Z,16.61
2022-10-24T13:34:50.193Z,16.51
2022-10-24T13:37:32.777Z,16.03
2022-10-24T13:40:21.075Z,16.67
2022-10-24T13:42:52.645Z,16.63
2022-10-24T13:45:29.724Z,16.36
2022-10-24T13:48:23.788Z,16.63
2022-10-24T13:51:17.935Z,16.04
2022-10-24T13:53:57.982Z,16.43
2022-10-24T13:56:25.518Z,15.98
2022-10-24T13:58:52.484Z,15.84
2022-10-24T14:01:25.993Z,16.16
2022-10-24T14:03:54.581Z,16.60
2022-10-24T14:06:30.831Z,16.69
2022-10-24T14:09:07.167Z,15.83
2022-10-24T14:11:35.383Z,16.26
2022-10-24T14:14:06.105Z,16.25
2022-10-24T14:16:34.906Z,16.53
2022-10-24T14:19:28.401Z,16.42
2022-10-24T14:21:58.718Z,16.79
2022-10-24T14:24:25.815Z,16.76
2022-10-24T14:26:54.335Z,16.40
2022-10-24T14:29:34.093Z,16.17
2022-10-24T14:32:09.842Z,16.28
2022-10-24T14:34:38.120Z,16.54
2022-10-24T14:37:25.431Z,16.30
2022-10-24T14:39:53.556Z,16.01
2022-10-24T14:42:20.666Z,16.44
2022-10-24T14:44:47.964Z,16.20
2022-10-24T14:47:30.652Z,15.72
2022-10-24T14:49:57.939Z,16.18
2022-10-24T14:52:29.354Z,16.21
2022-10-24T14:55:03.569Z,15.76
2022-10-24T14:57:34.153Z,16.33
2022-10-24T15:00:07.631Z,16.04
2022-10-24T15:02:44.024Z,16.17
2022-10-24T15:05:20.525Z,16.26
2022-10-24T15:08:20.535Z,16.06
2022-10-24T15:10:48.553Z,15.86
2022-10-24T15:13:23.774Z,16.21
2022-10-24T15:15:59.894Z,16.02
2022-10-24T15:18:42.548Z,16.16
2022-10-24T15:21:16.661Z,16.03
2022-10-24T15:23:54.981Z,15.85
2022-10-24T15:26:39.496Z,15.17
2022-10-24T15:29:12.423Z,16.09
2022-10-24T15:31:46.173Z,16.02
2022-10-24T15:34:22.377Z,15.59
2022-10-24T15:36:51.357Z,15.43
2022-10-24T15:39:24.690Z,15.75
2022-10-24T15:41:52.591Z,15.58
2022-10-24T15:44:27.867Z,15.66
2022-10-24T15:46:55.681Z,15.47
2022-10-24T15:49:22.827Z,15.83
2022-10-24T15:51:51.052Z,15.95
2022-10-24T15:54:21.729Z,15.67
2022-10-24T15:56:50.291Z,15.91
2022-10-24T15:59:20.214Z,15.57
2022-10-24T16:01:58.667Z,15.38
2022-10-24T16:04:25.722Z,15.81
2022-10-24T16:06:53.202Z,15.84
2022-10-24T16:09:25.339Z,15.69
2022-10-24T16:11:52.442Z,15.81
2022-10-24T16:14:22.065Z,15.29
2022-10-24T16:16:49.634Z,15.15
2022-10-24T16:19:16.619Z,15.17
2022-10-24T16:21:44.302Z,15.25
2022-10-24T16:24:12.690Z,15.42
2022-10-24T16:26:41.220Z,15.46
2022-10-24T16:29:08.522Z,15.75
2022-10-24T16:31:35.844Z,15.74
2022-10-24T16:34:03.268Z,15.74
2022-10-24T16:36:30.868Z,15.01
2022-10-24T16:38:57.976Z,15.38
2022-10-24T16:41:26.037Z,15.50
2022-10-24T16:43:57.589Z,15.71
2022-10-24T16:46:26.041Z,14.85
2022-10-24T16:48:53.654Z,14.71
2022-10-24T16:51:27.544Z,15.38
2022-10-24T16:53:54.592Z,14.82
2022-10-24T16:56:21.601Z,15.03
2022-10-24T16:58:48.729Z,15.01
2022-10-24T17:01:17.013Z,15.30
2022-10-24T17:03:47.059Z,15.03
2022-10-24T17:06:14.994Z,15.09
2022-10-24T17:08:41.970Z,15.49
2022-10-24T17:11:32.299Z,15.30
2022-10-24T17:13:58.593Z,15.32
2022-10-24T17:16:25.744Z,15.31
2022-10-24T17:19:12.145Z,15.32
2022-10-24T17:21:39.656Z,15.46
2022-10-24T17:24:11.636Z,15.47
2022-10-24T17:26:38.949Z,14.79
2022-10-24T17:29:08.226Z,15.46
2022-10-24T17:31:35.860Z,14.78
2022-10-24T17:34:03.521Z,14.45
2022-10-24T17:36:35.222Z,15.20
2022-10-24T17:39:26.049Z,15.15
2022-10-24T17:41:56.330Z,14.23
2022-10-24T17:44:23.583Z,14.76
2022-10-24T17:46:54.513Z,14.36
2022-10-24T17:49:24.436Z,14.56
2022-10-24T17:51:51.625Z,15.07
2022-10-24T17:54:19.117Z,14.88
2022-10-24T17:56:46.401Z,15.24
2022-10-24T17:59:13.837Z,15.25
2022-10-24T18:01:41.374Z,14.98
2022-10-24T18:04:08.656Z,14.89
2022-10-24T18:06:42.243Z,14.86
2022-10-24T18:09:10.560Z,15.15
2022-10-24T18:11:37.599Z,14.94
2022-10-24T18:14:04.606Z,14.46
2022-10-24T18:16:31.782Z,15.00
2022-10-24T18:18:58.743Z,14.57
2022-10-24T18:21:27.428Z,14.54
2022-10-24T18:23:55.875Z,15.05
2022-10-24T18:26:27.398Z,14.38
2022-10-24T18:28:55.612Z,15.02
2022-10-24T18:31:29.033Z,14.60
2022-10-24T18:33:58.961Z,14.42
2022-10-24T18:36:28.694Z,14.71
2022-10-24T18:38:57.274Z,14.42
2022-10-24T18:41:35.998Z,15.01
2022-10-24T18:44:24.341Z,14.55
2022-10-24T18:46:53.393Z,14.99
2022-10-24T18:49:20.797Z,14.98
2022-10-24T18:52:18.920Z,14.98
2022-10-24T18:55:05.666Z,14.95
2022-10-24T18:57:34.677Z,14.65
2022-10-24T19:00:01.902Z,14.91
2022-10-24T19:02:58.530Z,14.91
2022-10-24T19:05:39.481Z,14.88
2022-10-24T19:08:17.743Z,14.63
2022-10-24T19:10:46.023Z,14.68
2022-10-24T19:13:13.746Z,14.49
2022-10-24T19:15:45.819Z,14.65
2022-10-24T19:18:15.870Z,14.85
2022-10-24T19:20:43.152Z,14.65
2022-10-24T19:23:15.299Z,13.94
2022-10-24T19:25:42.759Z,14.46
2022-10-24T19:28:13.253Z,14.51
2022-10-24T19:30:42.421Z,14.12
2022-10-24T19:33:09.797Z,14.35
2022-10-24T19:35:38.382Z,14.54
2022-10-24T19:38:05.530Z,14.27
2022-10-24T19:40:32.902Z,14.68
2022-10-24T19:42:59.916Z,13.89
2022-10-24T19:45:27.027Z,14.63
2022-10-24T19:47:55.627Z,14.13
2022-10-24T19:50:23.031Z,13.14
2022-10-24T19:52:51.402Z,14.21
2022-10-24T19:55:18.618Z,13.87
2022-10-24T19:57:46.360Z,13.82
2022-10-24T20:00:14.125Z,14.57
2022-10-24T20:02:41.917Z,14.40
2022-10-24T20:05:09.311Z,14.40
2022-10-24T20:07:36.436Z,14.21
2022-10-24T20:10:04.235Z,13.91
2022-10-24T20:12:31.754Z,14.42
2022-10-24T20:14:58.766Z,14.46
2022-10-24T20:17:25.731Z,14.67
2022-10-24T20:19:52.966Z,14.45
2022-10-24T20:22:20.095Z,14.48
2022-10-24T20:24:47.169Z,14.47
2022-10-24T20:27:14.513Z,14.36
2022-10-24T20:29:41.625Z,14.49
2022-10-24T20:32:08.557Z,14.04
2022-10-24T20:34:35.704Z,14.66
2022-10-24T20:37:03.052Z,14.44
2022-10-24T20:39:30.024Z,14.50
2022-10-24T20:41:57.124Z,13.86
2022-10-24T20:44:24.221Z,14.14
2022-10-24T20:46:53.202Z,14.36
2022-10-24T20:49:20.603Z,13.63
2022-10-24T20:51:47.748Z,14.07
2022-10-24T20:54:14.898Z,14.59
2022-10-24T20:56:42.717Z,13.60
2022-10-24T20:59:12.860Z,14.55
2022-10-24T21:01:40.039Z,13.55
2022-10-24T21:04:07.116Z,13.74
2022-10-24T21:06:34.665Z,14.29
2022-10-24T21:09:05.694Z,14.46
2022-10-24T21:11:35.043Z,14.38
2022-10-24T21:14:08.237Z,13.54
2022-10-24T21:16:35.717Z,14.09
2022-10-24T21:19:03.745Z,14.41
2022-10-24T21:21:30.974Z,13.39
2022-10-24T21:24:04.297Z,13.80
2022-10-24T21:26:35.472Z,14.39
2022-10-24T21:29:14.613Z,14.02
2022-10-24T21:31:51.521Z,14.02
2022-10-24T21:34:19.414Z,14.18
2022-10-24T21:36:46.435Z,13.70
2022-10-24T21:39:15.590Z,13.96
2022-10-24T21:41:42.870Z,14.37
2022-10-24T21:44:10.034Z,13.20
2022-10-24T21:46:37.045Z,13.86
2022-10-24T21:49:04.225Z,14.34
2022-10-24T21:51:34.705Z,13.66
2022-10-24T21:54:04.541Z,13.67
2022-10-24T21:56:34.562Z,13.91
2022-10-24T21:59:04.876Z,13.80
2022-10-24T22:01:35.242Z,14.29
2022-10-24T22:04:03.032Z,14.10
2022-10-24T22:06:33.663Z,13.88
2022-10-24T22:09:00.781Z,13.66
2022-10-24T22:11:30.893Z,13.54
2022-10-24T22:13:58.502Z,14.16
2022-10-24T22:16:28.552Z,13.69
2022-10-24T22:18:57.122Z,13.81
2022-10-24T22:21:31.546Z,14.11
2022-10-24T22:24:02.038Z,13.79
2022-10-24T22:26:29.726Z,13.77
2022-10-24T22:28:57.033Z,13.49
2022-10-24T22:31:26.339Z,13.91
2022-10-24T22:33:53.943Z,13.46
2022-10-24T22:36:36.066Z,14.11
2022-10-24T22:39:05.291Z,13.03
2022-10-24T22:41:32.918Z,13.93
2022-10-24T22:44:00.307Z,13.93
2022-10-24T22:47:10.838Z,14.04
2022-10-24T22:50:07.749Z,14.00
2022-10-24T22:52:35.182Z,13.77
2022-10-24T22:55:04.013Z,13.47
2022-10-24T22:57:32.113Z,12.99
2022-10-24T22:59:59.320Z,13.68
2022-10-24T23:02:36.849Z,13.94
2022-10-24T23:05:14.676Z,13.80
2022-10-24T23:08:08.381Z,12.43
2022-10-24T23:10:36.559Z,13.20
2022-10-24T23:13:04.010Z,13.78
2022-10-24T23:15:31.192Z,13.49
2022-10-24T23:17:58.557Z,13.89
2022-10-24T23:20:34.933Z,13.90
2022-10-24T23:23:16.215Z,13.88
2022-10-24T23:25:53.009Z,13.87
2022-10-24T23:28:28.114Z,13.25
2022-10-24T23:30:55.577Z,12.85
2022-10-24T23:33:29.452Z,13.66
2022-10-24T23:35:59.778Z,13.29
2022-10-24T23:38:27.426Z,13.47
2022-10-24T23:40:54.889Z,13.72
2022-10-24T23:43:23.342Z,13.68
2022-10-24T23:46:12.888Z,13.54
2022-10-24T23:49:00.275Z,13.70
2022-10-24T23:52:18.775Z,13.28
2022-10-24T23:54:46.088Z,13.53
2022-10-24T23:57:19.857Z,12.22
2022-10-24T23:59:47.402Z,12.91
